sensor_id;sensor_type;location;lat;lon;timestamp;P1;durP1;ratioP1;P2;durP2;ratioP2
974;SDS011;6115;49.296;10.602;2023-02-15T00:03:17;22.40;;;10.50;;
974;SDS011;6115;49.296;10.602;2023-02-15T00:08:17;28.33;;;11.57;;
974;SDS011;6115;49.296;10.602;2023-02-15T00:13:18;20.73;;;11.40;;
974;SDS011;6115;49.296;10.602;2023-02-15T00:18:18;17.77;;;10.27;;
974;SDS011;6115;49.296;10.602;2023-02-15T00:23:19;19.63;;;10.47;;
974;SDS011;6115;49.296;10.602;2023-02-15T00:28:19;21.10;;;10.00;;
974;SDS011;6115;49.296;10.602;2023-02-15T00:33:21;21.93;;;11.33;;
974;SDS011;6115;49.296;10.602;2023-02-15T00:38:26;28.37;;;9.90;;
974;SDS011;6115;49.296;10.602;2023-02-15T00:43:28;22.77;;;10.67;;
974;SDS011;6115;49.296;10.602;2023-02-15T00:48:30;24.10;;;11.60;;
974;SDS011;6115;49.296;10.602;2023-02-15T00:53:31;18.37;;;9.70;;
974;SDS011;6115;49.296;10.602;2023-02-15T00:58:31;22.23;;;9.90;;
974;SDS011;6115;49.296;10.602;2023-02-15T01:03:33;24.20;;;11.03;;
974;SDS011;6115;49.296;10.602;2023-02-15T01:08:34;18.03;;;9.97;;
974;SDS011;6115;49.296;10.602;2023-02-15T01:13:35;25.13;;;10.37;;
974;SDS011;6115;49.296;10.602;2023-02-15T01:18:36;19.40;;;10.23;;
974;SDS011;6115;49.296;10.602;2023-02-15T01:23:36;25.13;;;12.40;;
974;SDS011;6115;49.296;10.602;2023-02-15T01:28:37;28.23;;;13.80;;
974;SDS011;6115;49.296;10.602;2023-02-15T01:33:40;26.87;;;12.80;;
974;SDS011;6115;49.296;10.602;2023-02-15T01:38:41;29.87;;;12.33;;
974;SDS011;6115;49.296;10.602;2023-02-15T01:43:42;28.67;;;13.13;;
974;SDS011;6115;49.296;10.602;2023-02-15T01:48:46;32.67;;;12.93;;
974;SDS011;6115;49.296;10.602;2023-02-15T01:53:52;26.80;;;13.03;;
974;SDS011;6115;49.296;10.602;2023-02-15T01:58:58;39.90;;;15.23;;
974;SDS011;6115;49.296;10.602;2023-02-15T02:04:05;29.63;;;13.57;;
974;SDS011;6115;49.296;10.602;2023-02-15T02:09:15;28.87;;;13.40;;
974;SDS011;6115;49.296;10.602;2023-02-15T02:14:16;33.50;;;12.77;;
974;SDS011;6115;49.296;10.602;2023-02-15T02:30:25;29.67;;;14.30;;
974;SDS011;6115;49.296;10.602;2023-02-15T02:35:52;30.73;;;13.00;;
974;SDS011;6115;49.296;10.602;2023-02-15T02:41:21;34.10;;;12.57;;
974;SDS011;6115;49.296;10.602;2023-02-15T02:46:26;27.20;;;13.13;;
974;SDS011;6115;49.296;10.602;2023-02-15T02:51:31;29.70;;;12.10;;
974;SDS011;6115;49.296;10.602;2023-02-15T02:56:41;35.17;;;14.07;;
974;SDS011;6115;49.296;10.602;2023-02-15T03:01:47;27.87;;;12.30;;
974;SDS011;6115;49.296;10.602;2023-02-15T03:07:03;32.43;;;13.10;;
974;SDS011;6115;49.296;10.602;2023-02-15T03:12:11;28.60;;;14.63;;
974;SDS011;6115;49.296;10.602;2023-02-15T03:17:15;32.03;;;14.57;;
974;SDS011;6115;49.296;10.602;2023-02-15T03:27:35;31.93;;;14.07;;
974;SDS011;6115;49.296;10.602;2023-02-15T03:32:40;33.53;;;15.40;;
974;SDS011;6115;49.296;10.602;2023-02-15T03:37:57;31.93;;;13.70;;
974;SDS011;6115;49.296;10.602;2023-02-15T03:43:14;25.73;;;13.13;;
974;SDS011;6115;49.296;10.602;2023-02-15T03:48:19;27.00;;;13.23;;
974;SDS011;6115;49.296;10.602;2023-02-15T03:53:26;29.70;;;12.97;;
974;SDS011;6115;49.296;10.602;2023-02-15T03:58:27;24.70;;;13.63;;
974;SDS011;6115;49.296;10.602;2023-02-15T04:03:49;23.50;;;12.27;;
974;SDS011;6115;49.296;10.602;2023-02-15T04:08:56;33.17;;;12.27;;
974;SDS011;6115;49.296;10.602;2023-02-15T04:14:15;26.27;;;11.20;;
974;SDS011;6115;49.296;10.602;2023-02-15T04:19:34;21.47;;;11.00;;
974;SDS011;6115;49.296;10.602;2023-02-15T04:24:53;19.60;;;9.87;;
974;SDS011;6115;49.296;10.602;2023-02-15T04:30:11;28.20;;;12.13;;
974;SDS011;6115;49.296;10.602;2023-02-15T04:35:13;22.10;;;10.47;;
974;SDS011;6115;49.296;10.602;2023-02-15T04:40:14;22.17;;;11.23;;
974;SDS011;6115;49.296;10.602;2023-02-15T04:45:16;19.50;;;11.67;;
974;SDS011;6115;49.296;10.602;2023-02-15T04:50:17;25.43;;;12.10;;
974;SDS011;6115;49.296;10.602;2023-02-15T04:55:17;24.20;;;12.60;;
974;SDS011;6115;49.296;10.602;2023-02-15T05:00:18;24.40;;;10.83;;
974;SDS011;6115;49.296;10.602;2023-02-15T05:05:19;25.93;;;13.77;;
974;SDS011;6115;49.296;10.602;2023-02-15T05:10:19;22.87;;;11.40;;
974;SDS011;6115;49.296;10.602;2023-02-15T05:15:20;25.00;;;12.77;;
974;SDS011;6115;49.296;10.602;2023-02-15T05:20:20;33.07;;;14.17;;
974;SDS011;6115;49.296;10.602;2023-02-15T05:25:21;22.33;;;10.43;;
974;SDS011;6115;49.296;10.602;2023-02-15T05:30:40;22.20;;;11.43;;
974;SDS011;6115;49.296;10.602;2023-02-15T05:35:41;22.53;;;10.13;;
974;SDS011;6115;49.296;10.602;2023-02-15T05:40:42;30.07;;;12.60;;
974;SDS011;6115;49.296;10.602;2023-02-15T05:45:49;34.37;;;12.10;;
974;SDS011;6115;49.296;10.602;2023-02-15T05:51:04;25.33;;;12.67;;
974;SDS011;6115;49.296;10.602;2023-02-15T05:56:10;24.83;;;11.47;;
974;SDS011;6115;49.296;10.602;2023-02-15T06:01:11;24.37;;;12.63;;
974;SDS011;6115;49.296;10.602;2023-02-15T06:06:12;26.70;;;12.33;;
974;SDS011;6115;49.296;10.602;2023-02-15T06:11:13;21.37;;;9.00;;
974;SDS011;6115;49.296;10.602;2023-02-15T06:16:13;25.87;;;12.00;;
974;SDS011;6115;49.296;10.602;2023-02-15T06:21:15;24.00;;;11.83;;
974;SDS011;6115;49.296;10.602;2023-02-15T06:26:16;24.57;;;13.23;;
974;SDS011;6115;49.296;10.602;2023-02-15T06:31:16;24.33;;;11.50;;
974;SDS011;6115;49.296;10.602;2023-02-15T06:36:17;20.20;;;11.07;;
974;SDS011;6115;49.296;10.602;2023-02-15T06:41:18;24.37;;;10.90;;
974;SDS011;6115;49.296;10.602;2023-02-15T06:46:18;22.70;;;10.53;;
974;SDS011;6115;49.296;10.602;2023-02-15T06:51:19;21.30;;;11.20;;
974;SDS011;6115;49.296;10.602;2023-02-15T06:56:19;20.90;;;10.80;;
974;SDS011;6115;49.296;10.602;2023-02-15T07:01:20;24.30;;;11.10;;
974;SDS011;6115;49.296;10.602;2023-02-15T07:06:20;22.27;;;11.47;;
974;SDS011;6115;49.296;10.602;2023-02-15T07:11:21;23.20;;;11.53;;
974;SDS011;6115;49.296;10.602;2023-02-15T07:16:41;17.47;;;9.60;;
974;SDS011;6115;49.296;10.602;2023-02-15T07:21:42;23.30;;;9.70;;
974;SDS011;6115;49.296;10.602;2023-02-15T07:26:45;18.47;;;9.80;;
974;SDS011;6115;49.296;10.602;2023-02-15T07:31:46;21.03;;;10.80;;
974;SDS011;6115;49.296;10.602;2023-02-15T07:36:46;25.07;;;12.00;;
974;SDS011;6115;49.296;10.602;2023-02-15T07:41:47;22.37;;;10.30;;
974;SDS011;6115;49.296;10.602;2023-02-15T07:46:47;16.93;;;9.33;;
974;SDS011;6115;49.296;10.602;2023-02-15T07:51:48;19.50;;;9.60;;
974;SDS011;6115;49.296;10.602;2023-02-15T07:56:48;17.53;;;9.47;;
974;SDS011;6115;49.296;10.602;2023-02-15T08:01:49;26.03;;;10.77;;
974;SDS011;6115;49.296;10.602;2023-02-15T08:06:51;20.50;;;11.17;;
974;SDS011;6115;49.296;10.602;2023-02-15T08:11:53;17.10;;;9.23;;
974;SDS011;6115;49.296;10.602;2023-02-15T08:16:54;21.10;;;9.17;;
974;SDS011;6115;49.296;10.602;2023-02-15T08:22:00;23.60;;;11.70;;
974;SDS011;6115;49.296;10.602;2023-02-15T08:27:08;19.80;;;9.83;;
974;SDS011;6115;49.296;10.602;2023-02-15T08:32:11;20.97;;;10.53;;
974;SDS011;6115;49.296;10.602;2023-02-15T08:37:12;21.77;;;12.00;;
974;SDS011;6115;49.296;10.602;2023-02-15T08:42:12;20.53;;;11.50;;
974;SDS011;6115;49.296;10.602;2023-02-15T08:47:13;21.37;;;10.10;;
974;SDS011;6115;49.296;10.602;2023-02-15T08:52:14;18.87;;;10.07;;
974;SDS011;6115;49.296;10.602;2023-02-15T08:57:14;20.60;;;11.03;;
974;SDS011;6115;49.296;10.602;2023-02-15T09:02:15;23.97;;;11.83;;
974;SDS011;6115;49.296;10.602;2023-02-15T09:07:15;17.03;;;10.63;;
974;SDS011;6115;49.296;10.602;2023-02-15T09:12:18;18.97;;;11.00;;
974;SDS011;6115;49.296;10.602;2023-02-15T09:17:19;16.37;;;9.13;;
974;SDS011;6115;49.296;10.602;2023-02-15T09:22:19;19.10;;;11.10;;
974;SDS011;6115;49.296;10.602;2023-02-15T09:27:20;18.13;;;11.03;;
974;SDS011;6115;49.296;10.602;2023-02-15T09:32:20;18.67;;;10.00;;
974;SDS011;6115;49.296;10.602;2023-02-15T09:37:22;19.80;;;10.30;;
974;SDS011;6115;49.296;10.602;2023-02-15T10:03:44;20.00;;;12.10;;
974;SDS011;6115;49.296;10.602;2023-02-15T10:19:54;19.33;;;11.50;;
974;SDS011;6115;49.296;10.602;2023-02-15T10:30:28;17.47;;;11.20;;
974;SDS011;6115;49.296;10.602;2023-02-15T10:41:18;21.87;;;12.50;;
974;SDS011;6115;49.296;10.602;2023-02-15T11:07:57;18.17;;;11.70;;
974;SDS011;6115;49.296;10.602;2023-02-15T11:13:05;20.67;;;11.97;;
974;SDS011;6115;49.296;10.602;2023-02-15T11:23:36;21.60;;;12.83;;
974;SDS011;6115;49.296;10.602;2023-02-15T11:28:47;19.50;;;12.37;;
974;SDS011;6115;49.296;10.602;2023-02-15T11:33:56;18.00;;;12.30;;
974;SDS011;6115;49.296;10.602;2023-02-15T11:39:02;18.57;;;12.60;;
974;SDS011;6115;49.296;10.602;2023-02-15T11:49:35;17.07;;;11.43;;
974;SDS011;6115;49.296;10.602;2023-02-15T11:54:39;20.00;;;12.83;;
974;SDS011;6115;49.296;10.602;2023-02-15T11:59:45;17.97;;;12.20;;
974;SDS011;6115;49.296;10.602;2023-02-15T12:04:56;18.27;;;11.80;;
974;SDS011;6115;49.296;10.602;2023-02-15T12:10:05;22.73;;;13.40;;
974;SDS011;6115;49.296;10.602;2023-02-15T12:15:29;24.43;;;13.37;;
974;SDS011;6115;49.296;10.602;2023-02-15T12:20:31;18.07;;;12.63;;
974;SDS011;6115;49.296;10.602;2023-02-15T12:30:41;21.33;;;10.80;;
974;SDS011;6115;49.296;10.602;2023-02-15T12:35:43;18.93;;;11.57;;
974;SDS011;6115;49.296;10.602;2023-02-15T12:40:45;21.43;;;12.90;;
974;SDS011;6115;49.296;10.602;2023-02-15T12:51:26;18.47;;;12.63;;
974;SDS011;6115;49.296;10.602;2023-02-15T12:56:27;21.30;;;13.20;;
974;SDS011;6115;49.296;10.602;2023-02-15T13:01:28;22.07;;;12.13;;
974;SDS011;6115;49.296;10.602;2023-02-15T13:06:33;17.00;;;13.10;;
974;SDS011;6115;49.296;10.602;2023-02-15T13:11:35;20.47;;;12.37;;
974;SDS011;6115;49.296;10.602;2023-02-15T13:16:37;19.93;;;12.60;;
974;SDS011;6115;49.296;10.602;2023-02-15T13:21:40;18.60;;;11.37;;
974;SDS011;6115;49.296;10.602;2023-02-15T13:26:44;18.37;;;12.30;;
974;SDS011;6115;49.296;10.602;2023-02-15T13:31:47;17.20;;;12.73;;
974;SDS011;6115;49.296;10.602;2023-02-15T13:36:51;17.37;;;12.40;;
974;SDS011;6115;49.296;10.602;2023-02-15T13:42:04;14.93;;;11.80;;
974;SDS011;6115;49.296;10.602;2023-02-15T13:58:21;18.27;;;13.50;;
974;SDS011;6115;49.296;10.602;2023-02-15T14:09:08;21.83;;;14.57;;
974;SDS011;6115;49.296;10.602;2023-02-15T14:19:30;17.93;;;13.63;;
974;SDS011;6115;49.296;10.602;2023-02-15T14:30:02;18.13;;;13.47;;
974;SDS011;6115;49.296;10.602;2023-02-15T14:35:17;19.50;;;13.83;;
974;SDS011;6115;49.296;10.602;2023-02-15T14:40:31;20.07;;;13.90;;
974;SDS011;6115;49.296;10.602;2023-02-15T14:56:45;20.80;;;14.63;;
974;SDS011;6115;49.296;10.602;2023-02-15T15:22:37;24.93;;;15.70;;
974;SDS011;6115;49.296;10.602;2023-02-15T15:49:02;26.23;;;16.63;;
974;SDS011;6115;49.296;10.602;2023-02-15T15:54:18;21.97;;;14.70;;
974;SDS011;6115;49.296;10.602;2023-02-15T15:59:24;26.80;;;15.57;;
974;SDS011;6115;49.296;10.602;2023-02-15T16:04:28;26.20;;;14.60;;
974;SDS011;6115;49.296;10.602;2023-02-15T16:09:30;21.50;;;12.63;;
974;SDS011;6115;49.296;10.602;2023-02-15T16:14:37;22.80;;;14.73;;
974;SDS011;6115;49.296;10.602;2023-02-15T16:19:40;39.10;;;25.00;;
974;SDS011;6115;49.296;10.602;2023-02-15T16:24:46;21.97;;;14.00;;
974;SDS011;6115;49.296;10.602;2023-02-15T16:29:52;21.90;;;14.43;;
974;SDS011;6115;49.296;10.602;2023-02-15T16:34:54;25.43;;;14.43;;
974;SDS011;6115;49.296;10.602;2023-02-15T16:39:59;21.53;;;13.80;;
974;SDS011;6115;49.296;10.602;2023-02-15T16:50:18;29.27;;;16.70;;
974;SDS011;6115;49.296;10.602;2023-02-15T16:55:23;29.40;;;14.97;;
974;SDS011;6115;49.296;10.602;2023-02-15T17:00:44;27.53;;;16.97;;
974;SDS011;6115;49.296;10.602;2023-02-15T17:05:47;23.77;;;15.47;;
974;SDS011;6115;49.296;10.602;2023-02-15T17:21:18;41.43;;;24.30;;
974;SDS011;6115;49.296;10.602;2023-02-15T17:26:24;36.30;;;22.50;;
974;SDS011;6115;49.296;10.602;2023-02-15T17:31:36;30.10;;;19.37;;
974;SDS011;6115;49.296;10.602;2023-02-15T17:36:37;24.17;;;15.53;;
974;SDS011;6115;49.296;10.602;2023-02-15T17:41:58;26.10;;;16.60;;
974;SDS011;6115;49.296;10.602;2023-02-15T17:46:59;27.07;;;16.70;;
974;SDS011;6115;49.296;10.602;2023-02-15T17:52:00;28.97;;;16.87;;
974;SDS011;6115;49.296;10.602;2023-02-15T17:57:01;28.27;;;17.20;;
974;SDS011;6115;49.296;10.602;2023-02-15T18:02:07;26.70;;;16.97;;
974;SDS011;6115;49.296;10.602;2023-02-15T18:07:29;28.23;;;15.23;;
974;SDS011;6115;49.296;10.602;2023-02-15T18:12:48;27.53;;;15.87;;
974;SDS011;6115;49.296;10.602;2023-02-15T18:17:49;29.87;;;17.80;;
974;SDS011;6115;49.296;10.602;2023-02-15T18:22:50;27.77;;;17.33;;
974;SDS011;6115;49.296;10.602;2023-02-15T18:27:51;32.33;;;16.63;;
974;SDS011;6115;49.296;10.602;2023-02-15T18:32:52;30.40;;;17.70;;
974;SDS011;6115;49.296;10.602;2023-02-15T18:37:55;26.97;;;16.13;;
974;SDS011;6115;49.296;10.602;2023-02-15T18:42:58;29.23;;;19.70;;
974;SDS011;6115;49.296;10.602;2023-02-15T18:47:59;28.23;;;16.93;;
974;SDS011;6115;49.296;10.602;2023-02-15T18:53:00;28.80;;;18.00;;
974;SDS011;6115;49.296;10.602;2023-02-15T18:58:02;35.33;;;18.90;;
974;SDS011;6115;49.296;10.602;2023-02-15T19:03:03;35.87;;;19.43;;
974;SDS011;6115;49.296;10.602;2023-02-15T19:08:03;28.27;;;18.23;;
974;SDS011;6115;49.296;10.602;2023-02-15T19:13:08;33.43;;;19.67;;
974;SDS011;6115;49.296;10.602;2023-02-15T19:18:09;32.03;;;17.00;;
974;SDS011;6115;49.296;10.602;2023-02-15T19:23:14;30.27;;;16.53;;
974;SDS011;6115;49.296;10.602;2023-02-15T19:28:20;26.30;;;16.87;;
974;SDS011;6115;49.296;10.602;2023-02-15T19:33:29;35.20;;;18.23;;
974;SDS011;6115;49.296;10.602;2023-02-15T19:38:30;28.13;;;18.40;;
974;SDS011;6115;49.296;10.602;2023-02-15T19:43:34;26.30;;;17.80;;
974;SDS011;6115;49.296;10.602;2023-02-15T19:48:35;28.90;;;17.40;;
974;SDS011;6115;49.296;10.602;2023-02-15T19:53:35;29.77;;;17.40;;
974;SDS011;6115;49.296;10.602;2023-02-15T19:58:36;25.20;;;15.17;;
974;SDS011;6115;49.296;10.602;2023-02-15T20:03:36;26.27;;;16.30;;
974;SDS011;6115;49.296;10.602;2023-02-15T20:08:37;24.47;;;14.73;;
974;SDS011;6115;49.296;10.602;2023-02-15T20:13:38;24.17;;;14.37;;
974;SDS011;6115;49.296;10.602;2023-02-15T20:18:39;25.10;;;15.17;;
974;SDS011;6115;49.296;10.602;2023-02-15T20:23:43;19.87;;;14.03;;
974;SDS011;6115;49.296;10.602;2023-02-15T20:28:45;26.20;;;15.47;;
974;SDS011;6115;49.296;10.602;2023-02-15T20:33:47;20.80;;;13.10;;
974;SDS011;6115;49.296;10.602;2023-02-15T20:38:48;17.67;;;11.73;;
974;SDS011;6115;49.296;10.602;2023-02-15T20:43:49;19.67;;;13.77;;
974;SDS011;6115;49.296;10.602;2023-02-15T20:48:50;22.50;;;13.73;;
974;SDS011;6115;49.296;10.602;2023-02-15T20:53:50;22.80;;;14.90;;
974;SDS011;6115;49.296;10.602;2023-02-15T20:58:51;19.07;;;12.03;;
974;SDS011;6115;49.296;10.602;2023-02-15T21:03:52;19.23;;;12.03;;
974;SDS011;6115;49.296;10.602;2023-02-15T21:08:53;18.17;;;11.60;;
974;SDS011;6115;49.296;10.602;2023-02-15T21:13:53;23.90;;;13.00;;
974;SDS011;6115;49.296;10.602;2023-02-15T21:18:54;18.97;;;13.00;;
974;SDS011;6115;49.296;10.602;2023-02-15T21:23:55;20.77;;;13.00;;
974;SDS011;6115;49.296;10.602;2023-02-15T21:28:55;18.03;;;11.90;;
974;SDS011;6115;49.296;10.602;2023-02-15T21:33:56;19.50;;;13.20;;
974;SDS011;6115;49.296;10.602;2023-02-15T21:38:56;21.60;;;14.43;;
974;SDS011;6115;49.296;10.602;2023-02-15T21:43:57;20.03;;;12.97;;
974;SDS011;6115;49.296;10.602;2023-02-15T21:49:16;18.10;;;11.53;;
974;SDS011;6115;49.296;10.602;2023-02-15T21:54:20;21.93;;;13.20;;
974;SDS011;6115;49.296;10.602;2023-02-15T21:59:20;15.60;;;11.43;;
974;SDS011;6115;49.296;10.602;2023-02-15T22:04:23;67.87;;;28.30;;
974;SDS011;6115;49.296;10.602;2023-02-15T22:09:26;21.80;;;12.67;;
974;SDS011;6115;49.296;10.602;2023-02-15T22:14:36;19.83;;;12.67;;
974;SDS011;6115;49.296;10.602;2023-02-15T22:19:39;19.73;;;13.27;;
974;SDS011;6115;49.296;10.602;2023-02-15T22:24:39;21.63;;;13.70;;
974;SDS011;6115;49.296;10.602;2023-02-15T22:29:40;20.20;;;12.63;;
974;SDS011;6115;49.296;10.602;2023-02-15T22:34:40;17.97;;;11.60;;
974;SDS011;6115;49.296;10.602;2023-02-15T22:39:41;21.33;;;12.50;;
974;SDS011;6115;49.296;10.602;2023-02-15T22:44:42;18.93;;;10.97;;
974;SDS011;6115;49.296;10.602;2023-02-15T22:49:42;27.43;;;14.10;;
974;SDS011;6115;49.296;10.602;2023-02-15T22:54:43;20.77;;;14.20;;
974;SDS011;6115;49.296;10.602;2023-02-15T22:59:43;22.97;;;13.70;;
974;SDS011;6115;49.296;10.602;2023-02-15T23:04:44;23.60;;;12.73;;
974;SDS011;6115;49.296;10.602;2023-02-15T23:09:46;22.77;;;12.40;;
974;SDS011;6115;49.296;10.602;2023-02-15T23:14:46;17.53;;;10.80;;
974;SDS011;6115;49.296;10.602;2023-02-15T23:19:47;18.73;;;11.30;;
974;SDS011;6115;49.296;10.602;2023-02-15T23:24:48;20.67;;;12.47;;
974;SDS011;6115;49.296;10.602;2023-02-15T23:29:51;16.40;;;11.27;;
974;SDS011;6115;49.296;10.602;2023-02-15T23:34:52;17.20;;;10.87;;
974;SDS011;6115;49.296;10.602;2023-02-15T23:39:52;18.00;;;12.30;;
974;SDS011;6115;49.296;10.602;2023-02-15T23:45:17;14.17;;;10.30;;
974;SDS011;6115;49.296;10.602;2023-02-15T23:50:23;21.37;;;11.57;;
974;SDS011;6115;49.296;10.602;2023-02-15T23:55:29;18.30;;;11.13;;
